AMX249T MMUN-KMFE
Flight info
| Callsign | AMX249T |
|---|---|
| Flight time | 2h 4m |
| Altitude | 36000 |
| Route | UDGUV2A UDGUV UT78 DURPI DCT NOTEN UT37 AVRAV DCT LIBOX UJ53 REX DCT FETMO DCT FATOR |
| Aircraft | B738/M-SDE2E3FGHIRWXY/LB1 |
Departure
| Time | 2026-04-22 17:04 |
|---|---|
| Airport | Cancún International Airport (MMUN) |
Arrival
| Time | 2026-04-22 19:09 |
|---|---|
| Airport | McAllen Miller International Airport (KMFE) |
| Time | Latitude | Longitude | Altitude | Speed | Heading |
|---|---|---|---|---|---|
| 2026-04-22 16:39 | 21.03674 | -86.87107 | 40 ft | 0 kts | 34° |
| 2026-04-22 16:54 | 21.03667 | -86.87112 | 42 ft | 3 kts | 34° |
| 2026-04-22 16:55 | 21.03650 | -86.87125 | 41 ft | 3 kts | 34° |
| 2026-04-22 16:55 | 21.03634 | -86.87137 | 42 ft | 3 kts | 34° |
| 2026-04-22 16:55 | 21.03620 | -86.87147 | 42 ft | 3 kts | 26° |
| 2026-04-22 16:55 | 21.03603 | -86.87152 | 42 ft | 3 kts | 341° |
| 2026-04-22 16:56 | 21.03589 | -86.87141 | 42 ft | 3 kts | 306° |
| 2026-04-22 16:56 | 21.03583 | -86.87132 | 40 ft | 0 kts | 304° |
| 2026-04-22 16:58 | 21.03594 | -86.87150 | 42 ft | 5 kts | 304° |
| 2026-04-22 16:58 | 21.03623 | -86.87195 | 42 ft | 9 kts | 304° |
| 2026-04-22 16:58 | 21.03668 | -86.87265 | 39 ft | 13 kts | 304° |
| 2026-04-22 16:59 | 21.03727 | -86.87358 | 39 ft | 17 kts | 304° |
| 2026-04-22 16:59 | 21.03780 | -86.87448 | 42 ft | 15 kts | 305° |
| 2026-04-22 16:59 | 21.03824 | -86.87522 | 40 ft | 10 kts | 293° |
| 2026-04-22 16:59 | 21.03817 | -86.87608 | 41 ft | 14 kts | 266° |
| 2026-04-22 17:00 | 21.03858 | -86.87710 | 40 ft | 17 kts | 304° |
| 2026-04-22 17:00 | 21.04010 | -86.87950 | 41 ft | 22 kts | 303° |
| 2026-04-22 17:00 | 21.04102 | -86.88099 | 40 ft | 25 kts | 303° |
| 2026-04-22 17:01 | 21.04206 | -86.88265 | 41 ft | 28 kts | 304° |
| 2026-04-22 17:01 | 21.04321 | -86.88443 | 39 ft | 30 kts | 304° |
| 2026-04-22 17:01 | 21.04444 | -86.88637 | 41 ft | 33 kts | 303° |
| 2026-04-22 17:01 | 21.04572 | -86.88845 | 41 ft | 34 kts | 303° |
| 2026-04-22 17:02 | 21.04635 | -86.88960 | 39 ft | 16 kts | 280° |
| 2026-04-22 17:02 | 21.04563 | -86.89060 | 35 ft | 13 kts | 214° |
| 2026-04-22 17:02 | 21.04534 | -86.89080 | 35 ft | 3 kts | 204° |
| 2026-04-22 17:02 | 21.04513 | -86.89066 | 34 ft | 0 kts | 125° |
| 2026-04-22 17:03 | 21.04504 | -86.89052 | 34 ft | 16 kts | 125° |
| 2026-04-22 17:03 | 21.04270 | -86.88678 | 38 ft | 104 kts | 123° |
| 2026-04-22 17:03 | 21.03719 | -86.87800 | 43 ft | 177 kts | 124° |
| 2026-04-22 17:04 | 21.02948 | -86.86590 | 562 ft | 205 kts | 123° |
| 2026-04-22 17:04 | 21.02151 | -86.85291 | 1419 ft | 214 kts | 125° |
| 2026-04-22 17:04 | 21.00993 | -86.84220 | 2073 ft | 230 kts | 158° |
| 2026-04-22 17:04 | 20.99390 | -86.84180 | 2700 ft | 241 kts | 195° |
| 2026-04-22 17:05 | 20.97973 | -86.85175 | 3024 ft | 252 kts | 217° |
| 2026-04-22 17:05 | 20.96551 | -86.86409 | 2993 ft | 269 kts | 214° |
| 2026-04-22 17:05 | 20.95034 | -86.87592 | 3009 ft | 270 kts | 214° |
| 2026-04-22 17:05 | 20.93818 | -86.89094 | 3018 ft | 275 kts | 244° |
| 2026-04-22 17:06 | 20.93285 | -86.91087 | 3027 ft | 277 kts | 258° |
| 2026-04-22 17:06 | 20.93004 | -86.93133 | 3029 ft | 278 kts | 261° |
| 2026-04-22 17:06 | 20.92744 | -86.95186 | 3015 ft | 279 kts | 261° |
| 2026-04-22 17:06 | 20.92468 | -86.97244 | 3007 ft | 280 kts | 260° |
| 2026-04-22 17:07 | 20.92182 | -86.99295 | 3002 ft | 279 kts | 260° |
| 2026-04-22 17:07 | 20.91890 | -87.01337 | 3258 ft | 283 kts | 260° |
| 2026-04-22 17:07 | 20.91591 | -87.03426 | 4226 ft | 283 kts | 259° |
| 2026-04-22 17:07 | 20.91292 | -87.05503 | 5255 ft | 281 kts | 260° |
| 2026-04-22 17:08 | 20.90994 | -87.07569 | 6208 ft | 282 kts | 260° |
| 2026-04-22 17:08 | 20.90692 | -87.09659 | 7065 ft | 287 kts | 260° |
| 2026-04-22 17:08 | 20.90384 | -87.11780 | 7746 ft | 289 kts | 261° |
| 2026-04-22 17:08 | 20.90075 | -87.13909 | 8077 ft | 290 kts | 261° |
| 2026-04-22 17:09 | 20.89763 | -87.16050 | 8097 ft | 293 kts | 261° |
| 2026-04-22 17:09 | 20.89451 | -87.18202 | 8102 ft | 292 kts | 261° |
| 2026-04-22 17:09 | 20.89244 | -87.19625 | 8100 ft | 292 kts | 261° |
| 2026-04-22 17:09 | 20.88827 | -87.22485 | 8114 ft | 291 kts | 261° |
| 2026-04-22 17:10 | 20.88516 | -87.24618 | 8121 ft | 290 kts | 261° |
| 2026-04-22 17:10 | 20.88205 | -87.26752 | 8108 ft | 291 kts | 261° |
| 2026-04-22 17:10 | 20.87893 | -87.28889 | 8108 ft | 291 kts | 261° |
| 2026-04-22 17:10 | 20.87580 | -87.31030 | 8115 ft | 291 kts | 261° |
| 2026-04-22 17:11 | 20.87268 | -87.33162 | 8122 ft | 291 kts | 261° |
| 2026-04-22 17:11 | 20.86958 | -87.35277 | 8107 ft | 293 kts | 261° |
| 2026-04-22 17:11 | 20.86642 | -87.37438 | 8250 ft | 297 kts | 261° |
| 2026-04-22 17:11 | 20.86318 | -87.39638 | 9029 ft | 299 kts | 261° |
| 2026-04-22 17:12 | 20.85995 | -87.41827 | 9936 ft | 298 kts | 261° |
| 2026-04-22 17:12 | 20.85671 | -87.44031 | 10629 ft | 307 kts | 261° |
| 2026-04-22 17:12 | 20.85325 | -87.46380 | 10859 ft | 331 kts | 261° |
| 2026-04-22 17:12 | 20.84961 | -87.48849 | 11421 ft | 340 kts | 261° |
| 2026-04-22 17:13 | 20.84591 | -87.51353 | 12191 ft | 343 kts | 261° |
| 2026-04-22 17:13 | 20.84217 | -87.53881 | 12987 ft | 345 kts | 261° |
| 2026-04-22 17:13 | 20.83841 | -87.56420 | 13748 ft | 347 kts | 262° |
| 2026-04-22 17:13 | 20.83462 | -87.58975 | 14512 ft | 349 kts | 262° |
| 2026-04-22 17:14 | 20.83079 | -87.61547 | 15247 ft | 351 kts | 262° |
| 2026-04-22 17:14 | 20.82694 | -87.64133 | 15953 ft | 354 kts | 262° |
| 2026-04-22 17:14 | 20.82307 | -87.66737 | 16645 ft | 356 kts | 262° |
| 2026-04-22 17:14 | 20.81917 | -87.69358 | 17314 ft | 358 kts | 262° |
| 2026-04-22 17:15 | 20.81656 | -87.71106 | 17738 ft | 360 kts | 262° |
| 2026-04-22 17:15 | 20.81125 | -87.74654 | 18598 ft | 363 kts | 262° |
| 2026-04-22 17:15 | 20.80732 | -87.77328 | 19237 ft | 365 kts | 264° |
| 2026-04-22 17:15 | 20.80560 | -87.80067 | 19489 ft | 377 kts | 271° |
| 2026-04-22 17:16 | 20.80614 | -87.82925 | 19597 ft | 392 kts | 273° |
| 2026-04-22 17:16 | 20.80739 | -87.85887 | 19716 ft | 406 kts | 274° |
| 2026-04-22 17:16 | 20.80870 | -87.88932 | 19919 ft | 415 kts | 273° |
| 2026-04-22 17:16 | 20.80984 | -87.92037 | 20306 ft | 419 kts | 273° |
| 2026-04-22 17:17 | 20.81075 | -87.95150 | 20796 ft | 419 kts | 272° |
| 2026-04-22 17:17 | 20.81153 | -87.98266 | 21249 ft | 420 kts | 272° |
| 2026-04-22 17:17 | 20.81222 | -88.01395 | 21641 ft | 422 kts | 272° |
| 2026-04-22 17:17 | 20.81287 | -88.04545 | 21994 ft | 425 kts | 272° |
| 2026-04-22 17:18 | 20.81353 | -88.07710 | 22359 ft | 427 kts | 272° |
| 2026-04-22 17:18 | 20.81417 | -88.10890 | 22710 ft | 429 kts | 272° |
| 2026-04-22 17:18 | 20.81480 | -88.14077 | 23058 ft | 431 kts | 272° |
| 2026-04-22 17:18 | 20.81543 | -88.17285 | 23379 ft | 433 kts | 272° |
| 2026-04-22 17:19 | 20.81672 | -88.23744 | 24052 ft | 435 kts | 272° |
| 2026-04-22 17:19 | 20.81801 | -88.30246 | 24629 ft | 439 kts | 272° |
| 2026-04-22 17:20 | 20.81931 | -88.36791 | 25239 ft | 442 kts | 271° |
| 2026-04-22 17:20 | 20.82039 | -88.42298 | 25717 ft | 444 kts | 271° |
| 2026-04-22 17:21 | 20.82101 | -88.45558 | 25988 ft | 445 kts | 271° |
| 2026-04-22 17:21 | 20.82227 | -88.52185 | 26550 ft | 447 kts | 271° |
| 2026-04-22 17:22 | 20.82350 | -88.58858 | 27039 ft | 450 kts | 271° |
| 2026-04-22 17:22 | 20.82411 | -88.62204 | 27279 ft | 451 kts | 271° |
| 2026-04-22 17:22 | 20.82532 | -88.68919 | 27751 ft | 453 kts | 271° |
| 2026-04-22 17:23 | 20.82592 | -88.72296 | 27967 ft | 454 kts | 271° |
| 2026-04-22 17:23 | 20.82709 | -88.79040 | 28535 ft | 453 kts | 270° |
| 2026-04-22 17:23 | 20.82766 | -88.82405 | 28902 ft | 451 kts | 270° |
| 2026-04-22 17:24 | 20.82823 | -88.85744 | 29291 ft | 448 kts | 270° |
| 2026-04-22 17:24 | 20.82878 | -88.89066 | 29646 ft | 447 kts | 270° |
| 2026-04-22 17:24 | 20.82932 | -88.92381 | 29982 ft | 446 kts | 270° |
| 2026-04-22 17:24 | 20.82987 | -88.95687 | 30347 ft | 444 kts | 270° |
| 2026-04-22 17:25 | 20.83041 | -88.98976 | 30763 ft | 441 kts | 270° |
| 2026-04-22 17:25 | 20.83093 | -89.02248 | 31136 ft | 439 kts | 270° |
| 2026-04-22 17:25 | 20.83144 | -89.05505 | 31526 ft | 437 kts | 270° |
| 2026-04-22 17:25 | 20.83194 | -89.08743 | 31908 ft | 434 kts | 270° |
| 2026-04-22 17:26 | 20.83244 | -89.11967 | 32247 ft | 433 kts | 270° |
| 2026-04-22 17:26 | 20.83293 | -89.15183 | 32600 ft | 432 kts | 270° |
| 2026-04-22 17:26 | 20.83365 | -89.18386 | 32963 ft | 430 kts | 273° |
| 2026-04-22 17:26 | 20.83810 | -89.21544 | 33336 ft | 430 kts | 281° |
| 2026-04-22 17:27 | 20.84605 | -89.24618 | 33707 ft | 429 kts | 286° |
| 2026-04-22 17:27 | 20.85770 | -89.27562 | 33994 ft | 432 kts | 293° |
| 2026-04-22 17:27 | 20.87134 | -89.30419 | 34299 ft | 431 kts | 294° |
| 2026-04-22 17:27 | 20.88512 | -89.33261 | 34591 ft | 430 kts | 294° |
| 2026-04-22 17:28 | 20.89888 | -89.36090 | 34949 ft | 427 kts | 294° |
| 2026-04-22 17:28 | 20.91255 | -89.38913 | 35257 ft | 426 kts | 294° |
| 2026-04-22 17:28 | 20.92610 | -89.41728 | 35485 ft | 426 kts | 293° |
| 2026-04-22 17:28 | 20.93961 | -89.44551 | 35705 ft | 426 kts | 293° |
| 2026-04-22 17:29 | 20.95308 | -89.47372 | 35962 ft | 425 kts | 293° |
| 2026-04-22 17:29 | 20.96652 | -89.50196 | 36061 ft | 425 kts | 293° |
| 2026-04-22 17:29 | 20.99326 | -89.55822 | 36061 ft | 423 kts | 293° |
| 2026-04-22 17:30 | 21.01988 | -89.61435 | 36077 ft | 423 kts | 293° |
| 2026-04-22 17:30 | 21.04650 | -89.67048 | 36078 ft | 423 kts | 293° |
| 2026-04-22 17:31 | 21.07313 | -89.72670 | 36076 ft | 423 kts | 293° |
| 2026-04-22 17:31 | 21.09976 | -89.78297 | 36076 ft | 423 kts | 293° |
| 2026-04-22 17:32 | 21.12636 | -89.83924 | 36073 ft | 423 kts | 293° |
| 2026-04-22 17:32 | 21.15292 | -89.89550 | 36075 ft | 423 kts | 293° |
| 2026-04-22 17:33 | 21.17946 | -89.95177 | 36073 ft | 423 kts | 293° |
| 2026-04-22 17:33 | 21.20599 | -90.00809 | 36075 ft | 423 kts | 293° |
| 2026-04-22 17:34 | 21.23248 | -90.06434 | 36072 ft | 423 kts | 293° |
| 2026-04-22 17:34 | 21.25875 | -90.12021 | 36074 ft | 422 kts | 293° |
| 2026-04-22 17:35 | 21.28532 | -90.17681 | 36074 ft | 422 kts | 293° |
| 2026-04-22 17:35 | 21.31154 | -90.23267 | 36074 ft | 422 kts | 293° |
| 2026-04-22 17:36 | 21.33790 | -90.28893 | 36075 ft | 422 kts | 293° |
| 2026-04-22 17:36 | 21.36425 | -90.34521 | 36074 ft | 422 kts | 293° |
| 2026-04-22 17:37 | 21.39054 | -90.40142 | 36073 ft | 421 kts | 293° |
| 2026-04-22 17:37 | 21.41680 | -90.45763 | 36074 ft | 421 kts | 293° |
| 2026-04-22 17:38 | 21.44286 | -90.51346 | 36075 ft | 421 kts | 292° |
| 2026-04-22 17:38 | 21.46910 | -90.56975 | 36076 ft | 421 kts | 292° |
| 2026-04-22 17:39 | 21.49529 | -90.62598 | 36073 ft | 421 kts | 292° |
| 2026-04-22 17:40 | 21.53448 | -90.71025 | 36074 ft | 421 kts | 292° |
| 2026-04-22 17:40 | 21.56064 | -90.76658 | 36075 ft | 421 kts | 292° |
| 2026-04-22 17:41 | 21.58678 | -90.82293 | 36080 ft | 421 kts | 292° |
| 2026-04-22 17:41 | 21.61287 | -90.87924 | 36085 ft | 421 kts | 292° |
| 2026-04-22 17:42 | 21.63900 | -90.93567 | 36082 ft | 421 kts | 292° |
| 2026-04-22 17:42 | 21.66507 | -90.99205 | 36081 ft | 421 kts | 292° |
| 2026-04-22 17:43 | 21.69112 | -91.04844 | 36086 ft | 421 kts | 292° |
| 2026-04-22 17:43 | 21.71714 | -91.10484 | 36084 ft | 421 kts | 292° |
| 2026-04-22 17:44 | 21.74314 | -91.16126 | 36084 ft | 421 kts | 292° |
| 2026-04-22 17:44 | 21.76908 | -91.21759 | 36082 ft | 420 kts | 292° |
| 2026-04-22 17:45 | 21.79503 | -91.27403 | 36085 ft | 420 kts | 292° |
| 2026-04-22 17:45 | 21.82091 | -91.33036 | 36081 ft | 420 kts | 292° |
| 2026-04-22 17:46 | 21.84671 | -91.38659 | 36083 ft | 419 kts | 292° |
| 2026-04-22 17:46 | 21.87255 | -91.44297 | 36082 ft | 419 kts | 292° |
| 2026-04-22 17:47 | 21.89831 | -91.49923 | 36086 ft | 419 kts | 292° |
| 2026-04-22 17:47 | 21.92401 | -91.55541 | 36084 ft | 418 kts | 292° |
| 2026-04-22 17:48 | 21.94554 | -91.60252 | 36081 ft | 418 kts | 292° |
| 2026-04-22 17:48 | 21.97536 | -91.66789 | 36081 ft | 418 kts | 292° |
| 2026-04-22 17:49 | 22.00098 | -91.72408 | 36088 ft | 417 kts | 292° |
| 2026-04-22 17:49 | 22.02659 | -91.78032 | 36088 ft | 417 kts | 292° |
| 2026-04-22 17:50 | 22.05214 | -91.83648 | 36092 ft | 417 kts | 292° |
| 2026-04-22 17:50 | 22.07764 | -91.89263 | 36082 ft | 417 kts | 292° |
| 2026-04-22 17:51 | 22.10302 | -91.94855 | 36086 ft | 417 kts | 292° |
| 2026-04-22 17:51 | 22.12849 | -92.00476 | 36084 ft | 417 kts | 292° |
| 2026-04-22 17:52 | 22.15396 | -92.06098 | 36084 ft | 417 kts | 292° |
| 2026-04-22 17:52 | 22.17943 | -92.11728 | 36081 ft | 417 kts | 292° |
| 2026-04-22 17:53 | 22.20485 | -92.17354 | 36084 ft | 417 kts | 292° |
| 2026-04-22 17:53 | 22.23025 | -92.22983 | 36085 ft | 417 kts | 292° |
| 2026-04-22 17:54 | 22.25562 | -92.28612 | 36082 ft | 417 kts | 292° |
| 2026-04-22 17:54 | 22.28100 | -92.34250 | 36081 ft | 417 kts | 291° |
| 2026-04-22 17:55 | 22.30208 | -92.38934 | 36083 ft | 417 kts | 291° |
| 2026-04-22 17:55 | 22.33151 | -92.45483 | 36087 ft | 417 kts | 291° |
| 2026-04-22 17:56 | 22.35676 | -92.51111 | 36093 ft | 416 kts | 291° |
| 2026-04-22 17:56 | 22.38200 | -92.56741 | 36091 ft | 416 kts | 291° |
| 2026-04-22 17:57 | 22.40717 | -92.62363 | 36092 ft | 415 kts | 291° |
| 2026-04-22 17:57 | 22.43234 | -92.67993 | 36093 ft | 416 kts | 291° |
| 2026-04-22 17:58 | 22.45749 | -92.73620 | 36083 ft | 416 kts | 291° |
| 2026-04-22 17:58 | 22.48261 | -92.79250 | 36078 ft | 415 kts | 291° |
| 2026-04-22 17:59 | 22.50769 | -92.84876 | 36073 ft | 415 kts | 291° |
| 2026-04-22 17:59 | 22.53256 | -92.90466 | 36083 ft | 414 kts | 291° |
| 2026-04-22 18:00 | 22.55354 | -92.95181 | 36086 ft | 414 kts | 291° |
| 2026-04-22 18:00 | 22.57832 | -93.00759 | 36081 ft | 414 kts | 291° |
| 2026-04-22 18:01 | 22.60327 | -93.06379 | 36084 ft | 414 kts | 291° |
| 2026-04-22 18:01 | 22.62814 | -93.11993 | 36084 ft | 414 kts | 291° |
| 2026-04-22 18:02 | 22.65300 | -93.17610 | 36082 ft | 414 kts | 291° |
| 2026-04-22 18:02 | 22.67788 | -93.23234 | 36084 ft | 413 kts | 291° |
| 2026-04-22 18:03 | 22.70267 | -93.28845 | 36082 ft | 413 kts | 291° |
| 2026-04-22 18:03 | 22.72749 | -93.34471 | 36083 ft | 414 kts | 291° |
| 2026-04-22 18:04 | 22.75226 | -93.40093 | 36083 ft | 413 kts | 291° |
| 2026-04-22 18:04 | 22.77702 | -93.45716 | 36085 ft | 413 kts | 291° |
| 2026-04-22 18:05 | 22.80175 | -93.51341 | 36083 ft | 413 kts | 291° |
| 2026-04-22 18:05 | 22.82645 | -93.56964 | 36088 ft | 413 kts | 291° |
| 2026-04-22 18:06 | 22.85111 | -93.62590 | 36082 ft | 413 kts | 291° |
| 2026-04-22 18:06 | 22.87577 | -93.68216 | 36086 ft | 413 kts | 291° |
| 2026-04-22 18:07 | 22.90041 | -93.73844 | 36080 ft | 413 kts | 291° |
| 2026-04-22 18:07 | 22.92502 | -93.79475 | 36066 ft | 413 kts | 291° |
| 2026-04-22 18:08 | 22.94960 | -93.85107 | 36058 ft | 413 kts | 291° |
| 2026-04-22 18:08 | 22.97414 | -93.90733 | 36061 ft | 412 kts | 291° |
| 2026-04-22 18:09 | 22.99867 | -93.96363 | 36066 ft | 413 kts | 291° |
| 2026-04-22 18:09 | 23.02317 | -94.01996 | 36067 ft | 412 kts | 292° |
| 2026-04-22 18:10 | 23.04761 | -94.07619 | 36060 ft | 412 kts | 292° |
| 2026-04-22 18:10 | 23.07207 | -94.13253 | 36063 ft | 412 kts | 292° |
| 2026-04-22 18:11 | 23.09648 | -94.18885 | 36063 ft | 412 kts | 292° |
| 2026-04-22 18:11 | 23.12091 | -94.24528 | 36064 ft | 412 kts | 292° |
| 2026-04-22 18:12 | 23.14523 | -94.30153 | 36063 ft | 412 kts | 292° |
| 2026-04-22 18:12 | 23.16550 | -94.34845 | 36065 ft | 412 kts | 292° |
| 2026-04-22 18:13 | 23.19405 | -94.41457 | 36063 ft | 413 kts | 292° |
| 2026-04-22 18:13 | 23.21832 | -94.47088 | 36062 ft | 413 kts | 292° |
| 2026-04-22 18:14 | 23.24251 | -94.52708 | 36065 ft | 412 kts | 292° |
| 2026-04-22 18:14 | 23.26682 | -94.58362 | 36062 ft | 412 kts | 292° |
| 2026-04-22 18:15 | 23.29092 | -94.64008 | 36067 ft | 412 kts | 291° |
| 2026-04-22 18:15 | 23.31343 | -94.69757 | 36061 ft | 411 kts | 290° |
| 2026-04-22 18:16 | 23.33520 | -94.75471 | 36064 ft | 411 kts | 290° |
| 2026-04-22 18:16 | 23.35733 | -94.81235 | 36057 ft | 411 kts | 290° |
| 2026-04-22 18:17 | 23.37941 | -94.86954 | 36052 ft | 411 kts | 290° |
| 2026-04-22 18:17 | 23.40167 | -94.92719 | 36055 ft | 411 kts | 290° |
| 2026-04-22 18:18 | 23.42377 | -94.98446 | 36060 ft | 411 kts | 290° |
| 2026-04-22 18:18 | 23.44583 | -95.04171 | 36056 ft | 411 kts | 290° |
| 2026-04-22 18:19 | 23.46803 | -95.09944 | 36056 ft | 411 kts | 290° |
| 2026-04-22 18:19 | 23.48995 | -95.15648 | 36058 ft | 411 kts | 290° |
| 2026-04-22 18:20 | 23.51211 | -95.21421 | 36059 ft | 411 kts | 290° |
| 2026-04-22 18:20 | 23.53403 | -95.27143 | 36059 ft | 410 kts | 291° |
| 2026-04-22 18:21 | 23.55593 | -95.32862 | 36058 ft | 410 kts | 291° |
| 2026-04-22 18:21 | 23.57792 | -95.38617 | 36057 ft | 410 kts | 291° |
| 2026-04-22 18:22 | 23.59976 | -95.44336 | 36055 ft | 409 kts | 291° |
| 2026-04-22 18:22 | 23.62164 | -95.50074 | 36048 ft | 409 kts | 291° |
| 2026-04-22 18:23 | 23.64351 | -95.55817 | 36045 ft | 409 kts | 291° |
| 2026-04-22 18:23 | 23.66529 | -95.61545 | 36050 ft | 409 kts | 291° |
| 2026-04-22 18:24 | 23.69788 | -95.70126 | 36045 ft | 409 kts | 291° |
| 2026-04-22 18:25 | 23.73043 | -95.78712 | 36046 ft | 409 kts | 291° |
| 2026-04-22 18:25 | 23.75225 | -95.84481 | 36048 ft | 409 kts | 291° |
| 2026-04-22 18:26 | 23.78476 | -95.93087 | 36054 ft | 409 kts | 291° |
| 2026-04-22 18:26 | 23.80632 | -95.98806 | 36046 ft | 409 kts | 291° |
| 2026-04-22 18:27 | 23.82792 | -96.04542 | 36046 ft | 409 kts | 291° |
| 2026-04-22 18:27 | 23.84967 | -96.10325 | 36048 ft | 409 kts | 291° |
| 2026-04-22 18:28 | 23.87119 | -96.16053 | 36052 ft | 409 kts | 291° |
| 2026-04-22 18:28 | 23.89273 | -96.21796 | 36036 ft | 409 kts | 291° |
| 2026-04-22 18:29 | 23.91423 | -96.27535 | 36039 ft | 409 kts | 291° |
| 2026-04-22 18:29 | 23.93577 | -96.33294 | 36051 ft | 409 kts | 291° |
| 2026-04-22 18:30 | 23.96813 | -96.41960 | 36046 ft | 409 kts | 291° |
| 2026-04-22 18:31 | 23.98962 | -96.47720 | 36049 ft | 409 kts | 291° |
| 2026-04-22 18:31 | 24.01095 | -96.53451 | 36041 ft | 409 kts | 291° |
| 2026-04-22 18:32 | 24.03241 | -96.59221 | 36055 ft | 409 kts | 291° |
| 2026-04-22 18:32 | 24.05699 | -96.64831 | 36049 ft | 411 kts | 300° |
| 2026-04-22 18:33 | 24.09278 | -96.69745 | 36053 ft | 413 kts | 308° |
| 2026-04-22 18:33 | 24.13069 | -96.74474 | 36046 ft | 414 kts | 308° |
| 2026-04-22 18:34 | 24.16843 | -96.79212 | 36040 ft | 413 kts | 308° |
| 2026-04-22 18:34 | 24.20594 | -96.83949 | 36054 ft | 413 kts | 308° |
| 2026-04-22 18:35 | 24.24369 | -96.88731 | 36036 ft | 414 kts | 308° |
| 2026-04-22 18:35 | 24.28133 | -96.93506 | 36048 ft | 413 kts | 308° |
| 2026-04-22 18:36 | 24.31879 | -96.98261 | 36044 ft | 413 kts | 308° |
| 2026-04-22 18:36 | 24.35631 | -97.03029 | 36050 ft | 413 kts | 308° |
| 2026-04-22 18:37 | 24.39373 | -97.07789 | 36050 ft | 413 kts | 308° |
| 2026-04-22 18:37 | 24.42522 | -97.11799 | 36040 ft | 413 kts | 308° |
| 2026-04-22 18:38 | 24.46903 | -97.17382 | 36055 ft | 413 kts | 308° |
| 2026-04-22 18:38 | 24.50639 | -97.22149 | 36048 ft | 413 kts | 308° |
| 2026-04-22 18:39 | 24.56262 | -97.29332 | 36049 ft | 413 kts | 308° |
| 2026-04-22 18:39 | 24.59990 | -97.34101 | 36049 ft | 413 kts | 308° |
| 2026-04-22 18:40 | 24.63731 | -97.38891 | 36045 ft | 413 kts | 308° |
| 2026-04-22 18:40 | 24.66864 | -97.42905 | 36049 ft | 413 kts | 308° |
| 2026-04-22 18:41 | 24.70595 | -97.47690 | 36034 ft | 414 kts | 308° |
| 2026-04-22 18:41 | 24.74345 | -97.52505 | 36054 ft | 413 kts | 308° |
| 2026-04-22 18:42 | 24.78076 | -97.57299 | 36043 ft | 414 kts | 308° |
| 2026-04-22 18:42 | 24.81836 | -97.62137 | 36053 ft | 414 kts | 308° |
| 2026-04-22 18:43 | 24.85510 | -97.66864 | 36025 ft | 395 kts | 308° |
| 2026-04-22 18:43 | 24.87276 | -97.69138 | 36029 ft | 381 kts | 308° |
| 2026-04-22 18:43 | 24.88968 | -97.71318 | 36034 ft | 369 kts | 308° |
| 2026-04-22 18:44 | 24.90603 | -97.73425 | 36019 ft | 356 kts | 308° |
| 2026-04-22 18:44 | 24.92190 | -97.75472 | 36032 ft | 344 kts | 308° |
| 2026-04-22 18:44 | 24.93715 | -97.77440 | 36028 ft | 331 kts | 308° |
| 2026-04-22 18:44 | 24.95176 | -97.79328 | 36028 ft | 323 kts | 308° |
| 2026-04-22 18:45 | 24.98120 | -97.83142 | 36072 ft | 334 kts | 308° |
| 2026-04-22 18:45 | 25.01212 | -97.87148 | 36062 ft | 348 kts | 308° |
| 2026-04-22 18:46 | 25.04342 | -97.91201 | 36053 ft | 349 kts | 308° |
| 2026-04-22 18:46 | 25.07445 | -97.95216 | 36030 ft | 338 kts | 308° |
| 2026-04-22 18:47 | 25.10493 | -97.99169 | 36050 ft | 340 kts | 308° |
| 2026-04-22 18:47 | 25.13578 | -98.03176 | 36049 ft | 341 kts | 308° |
| 2026-04-22 18:48 | 25.16648 | -98.07164 | 36046 ft | 343 kts | 308° |
| 2026-04-22 18:48 | 25.19731 | -98.11175 | 35609 ft | 348 kts | 308° |
| 2026-04-22 18:49 | 25.21437 | -98.13136 | 34668 ft | 363 kts | 319° |
| 2026-04-22 18:49 | 25.23578 | -98.14592 | 33861 ft | 377 kts | 329° |
| 2026-04-22 18:49 | 25.26087 | -98.15632 | 32985 ft | 394 kts | 342° |
| 2026-04-22 18:49 | 25.28854 | -98.16049 | 32134 ft | 404 kts | 348° |
| 2026-04-22 18:50 | 25.31657 | -98.16301 | 31256 ft | 405 kts | 349° |
| 2026-04-22 18:50 | 25.34470 | -98.16526 | 30388 ft | 405 kts | 349° |
| 2026-04-22 18:50 | 25.37278 | -98.16758 | 29507 ft | 404 kts | 349° |
| 2026-04-22 18:50 | 25.40078 | -98.17006 | 28634 ft | 402 kts | 349° |
| 2026-04-22 18:51 | 25.42863 | -98.17267 | 27763 ft | 401 kts | 349° |
| 2026-04-22 18:51 | 25.45636 | -98.17536 | 26893 ft | 399 kts | 349° |
| 2026-04-22 18:51 | 25.48398 | -98.17809 | 26014 ft | 397 kts | 350° |
| 2026-04-22 18:51 | 25.51144 | -98.18081 | 25145 ft | 395 kts | 350° |
| 2026-04-22 18:52 | 25.53877 | -98.18353 | 24269 ft | 393 kts | 350° |
| 2026-04-22 18:52 | 25.56595 | -98.18622 | 23399 ft | 391 kts | 351° |
| 2026-04-22 18:52 | 25.59297 | -98.18888 | 22520 ft | 388 kts | 351° |
| 2026-04-22 18:52 | 25.61948 | -98.19155 | 21622 ft | 387 kts | 351° |
| 2026-04-22 18:53 | 25.64658 | -98.19434 | 20679 ft | 385 kts | 350° |
| 2026-04-22 18:53 | 25.67276 | -98.19704 | 19771 ft | 383 kts | 351° |
| 2026-04-22 18:53 | 25.69874 | -98.20177 | 18828 ft | 374 kts | 336° |
| 2026-04-22 18:53 | 25.72124 | -98.21530 | 17933 ft | 365 kts | 322° |
| 2026-04-22 18:54 | 25.74168 | -98.23236 | 16997 ft | 362 kts | 320° |
| 2026-04-22 18:54 | 25.76101 | -98.24951 | 16080 ft | 359 kts | 319° |
| 2026-04-22 18:54 | 25.78028 | -98.26695 | 15157 ft | 357 kts | 319° |
| 2026-04-22 18:54 | 25.79940 | -98.28441 | 14233 ft | 355 kts | 319° |
| 2026-04-22 18:55 | 25.81835 | -98.30185 | 13330 ft | 353 kts | 319° |
| 2026-04-22 18:55 | 25.83693 | -98.31906 | 12905 ft | 339 kts | 319° |
| 2026-04-22 18:55 | 25.85465 | -98.33553 | 12511 ft | 326 kts | 319° |
| 2026-04-22 18:55 | 25.87170 | -98.35143 | 12126 ft | 314 kts | 319° |
| 2026-04-22 18:56 | 25.88816 | -98.36683 | 11742 ft | 305 kts | 319° |
| 2026-04-22 18:56 | 25.90411 | -98.38179 | 11358 ft | 296 kts | 319° |
| 2026-04-22 18:56 | 25.91965 | -98.39638 | 10974 ft | 289 kts | 319° |
| 2026-04-22 18:56 | 25.93489 | -98.41069 | 10595 ft | 283 kts | 319° |
| 2026-04-22 18:57 | 25.94959 | -98.42447 | 10264 ft | 272 kts | 318° |
| 2026-04-22 18:57 | 25.96395 | -98.43790 | 9882 ft | 268 kts | 318° |
| 2026-04-22 18:57 | 25.97832 | -98.45133 | 9495 ft | 265 kts | 319° |
| 2026-04-22 18:57 | 25.99221 | -98.46432 | 9121 ft | 263 kts | 319° |
| 2026-04-22 18:58 | 26.00619 | -98.47743 | 8735 ft | 261 kts | 318° |
| 2026-04-22 18:58 | 26.02005 | -98.49042 | 8365 ft | 260 kts | 318° |
| 2026-04-22 18:58 | 26.03386 | -98.50329 | 7991 ft | 258 kts | 319° |
| 2026-04-22 18:58 | 26.04735 | -98.51584 | 7615 ft | 257 kts | 318° |
| 2026-04-22 18:59 | 26.06091 | -98.52857 | 7240 ft | 254 kts | 319° |
| 2026-04-22 18:59 | 26.07463 | -98.54067 | 6857 ft | 254 kts | 330° |
| 2026-04-22 18:59 | 26.09164 | -98.54519 | 6429 ft | 255 kts | 7° |
| 2026-04-22 18:59 | 26.10733 | -98.53769 | 6074 ft | 245 kts | 44° |
| 2026-04-22 19:00 | 26.11999 | -98.52547 | 5711 ft | 241 kts | 34° |
| 2026-04-22 19:00 | 26.13428 | -98.51580 | 5364 ft | 240 kts | 36° |
| 2026-04-22 19:00 | 26.14805 | -98.50528 | 4979 ft | 241 kts | 36° |
| 2026-04-22 19:00 | 26.16206 | -98.49521 | 4620 ft | 239 kts | 34° |
| 2026-04-22 19:01 | 26.17604 | -98.48548 | 4246 ft | 235 kts | 34° |
| 2026-04-22 19:01 | 26.18980 | -98.47596 | 3981 ft | 229 kts | 35° |
| 2026-04-22 19:01 | 26.20307 | -98.46654 | 3731 ft | 223 kts | 36° |
| 2026-04-22 19:01 | 26.21590 | -98.45734 | 3480 ft | 216 kts | 36° |
| 2026-04-22 19:02 | 26.22826 | -98.44845 | 3214 ft | 208 kts | 36° |
| 2026-04-22 19:02 | 26.24018 | -98.43987 | 2979 ft | 202 kts | 36° |
| 2026-04-22 19:02 | 26.25182 | -98.43145 | 2734 ft | 196 kts | 37° |
| 2026-04-22 19:02 | 26.26303 | -98.42333 | 2510 ft | 195 kts | 36° |
| 2026-04-22 19:03 | 26.27441 | -98.41511 | 2274 ft | 192 kts | 36° |
| 2026-04-22 19:03 | 26.28549 | -98.40709 | 2053 ft | 183 kts | 36° |
| 2026-04-22 19:03 | 26.29621 | -98.39933 | 2034 ft | 184 kts | 36° |
| 2026-04-22 19:03 | 26.30547 | -98.38983 | 1986 ft | 178 kts | 65° |
| 2026-04-22 19:04 | 26.30899 | -98.37703 | 1990 ft | 172 kts | 91° |
| 2026-04-22 19:04 | 26.30713 | -98.36436 | 1991 ft | 167 kts | 117° |
| 2026-04-22 19:04 | 26.29979 | -98.35472 | 2006 ft | 164 kts | 138° |
| 2026-04-22 19:04 | 26.29124 | -98.34594 | 2013 ft | 163 kts | 140° |
| 2026-04-22 19:05 | 26.28287 | -98.33795 | 1990 ft | 157 kts | 141° |
| 2026-04-22 19:05 | 26.27476 | -98.33044 | 1970 ft | 145 kts | 141° |
| 2026-04-22 19:05 | 26.26715 | -98.32347 | 2009 ft | 140 kts | 141° |
| 2026-04-22 19:05 | 26.25976 | -98.31669 | 1992 ft | 136 kts | 142° |
| 2026-04-22 19:06 | 26.25232 | -98.30990 | 1887 ft | 139 kts | 142° |
| 2026-04-22 19:06 | 26.24488 | -98.30308 | 1706 ft | 137 kts | 142° |
| 2026-04-22 19:06 | 26.23755 | -98.29641 | 1526 ft | 136 kts | 143° |
| 2026-04-22 19:07 | 26.22282 | -98.28290 | 1137 ft | 137 kts | 140° |
| 2026-04-22 19:07 | 26.21546 | -98.27616 | 984 ft | 136 kts | 141° |
| 2026-04-22 19:07 | 26.20812 | -98.26940 | 808 ft | 138 kts | 141° |
| 2026-04-22 19:07 | 26.20066 | -98.26261 | 591 ft | 138 kts | 141° |
| 2026-04-22 19:08 | 26.19334 | -98.25576 | 416 ft | 138 kts | 140° |
| 2026-04-22 19:08 | 26.18586 | -98.24902 | 217 ft | 138 kts | 141° |
| 2026-04-22 19:08 | 26.17854 | -98.24237 | 110 ft | 124 kts | 140° |
| 2026-04-22 19:08 | 26.17309 | -98.23738 | 109 ft | 62 kts | 141° |
| 2026-04-22 19:09 | 26.17083 | -98.23534 | 105 ft | 33 kts | 141° |
| 2026-04-22 19:09 | 26.17008 | -98.23457 | 103 ft | 12 kts | 119° |
| 2026-04-22 19:09 | 26.17012 | -98.23398 | 104 ft | 10 kts | 58° |
| 2026-04-22 19:09 | 26.17093 | -98.23384 | 106 ft | 10 kts | 325° |
| 2026-04-22 19:10 | 26.17147 | -98.23431 | 107 ft | 10 kts | 321° |
| 2026-04-22 19:10 | 26.17199 | -98.23478 | 109 ft | 9 kts | 321° |
| 2026-04-22 19:10 | 26.17250 | -98.23524 | 110 ft | 10 kts | 321° |
| 2026-04-22 19:10 | 26.17315 | -98.23583 | 110 ft | 17 kts | 321° |
| 2026-04-22 19:11 | 26.17422 | -98.23681 | 109 ft | 22 kts | 319° |
| 2026-04-22 19:11 | 26.17538 | -98.23788 | 110 ft | 22 kts | 321° |
| 2026-04-22 19:11 | 26.17664 | -98.23902 | 109 ft | 25 kts | 320° |
| 2026-04-22 19:11 | 26.17786 | -98.24015 | 106 ft | 21 kts | 320° |
| 2026-04-22 19:12 | 26.17886 | -98.24097 | 106 ft | 13 kts | 341° |
| 2026-04-22 19:12 | 26.17962 | -98.24094 | 107 ft | 6 kts | 9° |
| 2026-04-22 19:12 | 26.18007 | -98.24086 | 108 ft | 7 kts | 8° |
| 2026-04-22 19:12 | 26.18042 | -98.24074 | 108 ft | 4 kts | 45° |
| 2026-04-22 19:13 | 26.18044 | -98.24048 | 108 ft | 3 kts | 101° |
| 2026-04-22 19:13 | 26.18037 | -98.24035 | 107 ft | 2 kts | 130° |
| 2026-04-22 19:13 | 26.18030 | -98.24027 | 108 ft | 1 kts | 133° |